createdAt,value
2017-10-19T00:00:39.936Z,97.90
2017-10-19T00:03:06.243Z,97.90
2017-10-19T00:05:32.580Z,97.80
2017-10-19T00:07:58.867Z,97.80
2017-10-19T00:10:25.208Z,97.80
2017-10-19T00:12:52.283Z,97.80
2017-10-19T00:15:18.972Z,97.70
2017-10-19T00:17:46.060Z,97.80
2017-10-19T00:20:12.461Z,97.80
2017-10-19T00:22:38.790Z,97.70
2017-10-19T00:25:05.115Z,97.80
2017-10-19T00:27:31.473Z,98.10
2017-10-19T00:30:04.806Z,97.90
2017-10-19T00:32:31.181Z,97.90
2017-10-19T00:34:58.263Z,98.00
2017-10-19T00:37:24.652Z,97.90
2017-10-19T00:39:51.716Z,97.70
2017-10-19T00:42:18.082Z,97.70
2017-10-19T00:44:44.447Z,97.70
2017-10-19T00:47:10.771Z,97.70
2017-10-19T00:49:37.187Z,97.70
2017-10-19T00:52:03.542Z,97.60
2017-10-19T00:54:30.670Z,97.90
2017-10-19T00:56:57.064Z,97.80
2017-10-19T00:59:23.443Z,97.90
2017-10-19T01:01:49.824Z,97.90
2017-10-19T01:04:16.177Z,98.00
2017-10-19T01:06:42.571Z,97.90
2017-10-19T01:09:08.932Z,97.90
2017-10-19T01:11:35.278Z,98.00
2017-10-19T01:14:01.642Z,98.00
2017-10-19T01:16:28.762Z,97.70
2017-10-19T01:18:55.239Z,97.70
2017-10-19T01:21:21.597Z,97.70
2017-10-19T01:23:48.054Z,97.70
2017-10-19T01:26:14.417Z,97.80
2017-10-19T01:28:40.877Z,97.70
2017-10-19T01:31:07.244Z,97.70
2017-10-19T01:33:33.626Z,97.60
2017-10-19T01:36:00.021Z,97.60
2017-10-19T01:38:27.150Z,97.60
2017-10-19T01:40:53.534Z,97.60
2017-10-19T01:43:19.915Z,97.60
2017-10-19T01:45:46.309Z,97.60
2017-10-19T01:48:12.692Z,97.60
2017-10-19T01:50:39.796Z,97.90
2017-10-19T01:53:06.133Z,98.00
2017-10-19T01:55:32.453Z,98.10
2017-10-19T01:57:58.782Z,98.10
2017-10-19T02:00:26.009Z,98.00
2017-10-19T02:02:52.326Z,97.90
2017-10-19T02:05:18.692Z,97.80
2017-10-19T02:07:44.988Z,97.70
2017-10-19T02:10:11.284Z,97.70
2017-10-19T02:12:37.596Z,97.70
2017-10-19T02:15:03.937Z,97.70
2017-10-19T02:17:30.212Z,97.80
2017-10-19T02:19:56.553Z,97.90
2017-10-19T02:22:22.842Z,97.80
2017-10-19T02:24:49.935Z,97.80
2017-10-19T02:27:16.229Z,97.80
2017-10-19T02:32:15.320Z,97.70
2017-10-19T02:34:41.587Z,97.70
2017-10-19T02:37:07.868Z,97.60
2017-10-19T02:39:34.170Z,97.60
2017-10-19T02:42:00.426Z,97.60
2017-10-19T02:44:26.725Z,97.90
2017-10-19T02:46:53.035Z,97.60
2017-10-19T02:49:19.333Z,98.70
2017-10-19T02:51:46.384Z,98.60
2017-10-19T02:54:12.681Z,98.60
2017-10-19T02:56:39.002Z,98.30
2017-10-19T02:59:05.335Z,98.10
2017-10-19T03:01:31.639Z,97.80
2017-10-19T03:03:57.928Z,97.30
2017-10-19T03:06:24.267Z,96.60
2017-10-19T03:08:50.590Z,96.40
2017-10-19T03:11:16.869Z,96.40
2017-10-19T03:13:43.192Z,96.60
2017-10-19T03:16:09.490Z,96.90
2017-10-19T03:18:35.850Z,97.20
2017-10-19T03:21:02.133Z,97.40
2017-10-19T03:23:28.424Z,97.40
2017-10-19T03:25:54.728Z,97.40
2017-10-19T03:28:21.033Z,97.40
2017-10-19T03:30:47.335Z,97.40
2017-10-19T03:33:13.622Z,97.50
2017-10-19T03:35:39.962Z,97.50
2017-10-19T03:38:06.242Z,97.60
2017-10-19T03:40:32.536Z,97.70
2017-10-19T03:42:59.583Z,97.70
2017-10-19T03:45:26.637Z,97.70
2017-10-19T03:47:52.978Z,97.60
2017-10-19T03:50:19.309Z,97.60
2017-10-19T03:52:45.597Z,97.80
2017-10-19T03:55:11.928Z,97.50
2017-10-19T03:57:39.037Z,97.70
2017-10-19T04:00:05.352Z,97.70
2017-10-19T04:02:31.615Z,97.90
2017-10-19T04:04:57.911Z,98.10
2017-10-19T04:07:24.177Z,98.20
2017-10-19T04:09:50.465Z,98.30
2017-10-19T04:12:16.724Z,98.30
2017-10-19T04:14:43.028Z,98.30
2017-10-19T04:17:09.302Z,98.20
2017-10-19T04:19:36.396Z,98.10
2017-10-19T04:22:02.674Z,98.10
2017-10-19T04:24:29.698Z,98.10
2017-10-19T04:26:55.982Z,98.10
2017-10-19T04:29:22.265Z,98.20
2017-10-19T04:31:48.558Z,98.20
2017-10-19T04:34:14.846Z,98.20
2017-10-19T04:36:41.935Z,98.40
2017-10-19T04:39:08.227Z,98.40
2017-10-19T04:41:34.543Z,98.50
2017-10-19T04:44:00.842Z,98.40
2017-10-19T04:46:27.108Z,98.40
2017-10-19T04:48:53.400Z,98.40
2017-10-19T04:51:19.747Z,98.40
2017-10-19T04:53:46.794Z,98.70
2017-10-19T04:56:13.853Z,98.70
2017-10-19T04:58:40.892Z,98.70
2017-10-19T05:01:07.969Z,98.60
2017-10-19T05:03:34.243Z,98.60
2017-10-19T05:06:00.535Z,98.60
2017-10-19T05:08:26.825Z,98.60
2017-10-19T05:10:53.147Z,98.50
2017-10-19T05:13:20.224Z,98.40
2017-10-19T05:15:46.803Z,98.40
2017-10-19T05:18:13.146Z,98.30
2017-10-19T05:20:39.537Z,98.30
2017-10-19T05:23:05.880Z,98.40
2017-10-19T05:25:32.207Z,98.50
2017-10-19T05:27:58.509Z,98.40
2017-10-19T05:30:24.821Z,98.30
2017-10-19T05:32:51.114Z,98.30
2017-10-19T05:35:18.170Z,99.90
2017-10-19T05:37:45.192Z,99.90
2017-10-19T05:40:11.496Z,99.90
2017-10-19T05:42:37.795Z,98.80
2017-10-19T05:45:04.099Z,98.30
2017-10-19T05:47:31.121Z,99.50
2017-10-19T05:49:57.438Z,99.50
2017-10-19T05:52:23.709Z,98.70
2017-10-19T05:54:50.795Z,97.70
2017-10-19T05:57:17.080Z,97.70
2017-10-19T05:59:44.125Z,96.30
2017-10-19T06:02:11.172Z,95.50
2017-10-19T06:04:38.183Z,94.80
2017-10-19T06:07:04.497Z,94.80
2017-10-19T06:09:30.785Z,94.20
2017-10-19T06:11:57.802Z,93.70
2017-10-19T06:14:24.091Z,93.70
2017-10-19T06:16:50.405Z,93.60
2017-10-19T06:19:16.736Z,93.30
2017-10-19T06:21:43.018Z,93.40
2017-10-19T06:24:10.033Z,93.00
2017-10-19T06:26:36.334Z,93.00
2017-10-19T06:29:02.647Z,92.80
2017-10-19T06:31:28.945Z,93.00
2017-10-19T06:33:56.325Z,92.80
2017-10-19T06:36:22.616Z,92.80
2017-10-19T06:38:48.923Z,92.80
2017-10-19T06:41:15.243Z,92.70
2017-10-19T06:43:41.550Z,93.00
2017-10-19T06:46:08.175Z,93.10
2017-10-19T06:48:34.489Z,93.10
2017-10-19T06:51:00.791Z,94.00
2017-10-19T06:53:27.079Z,94.20
2017-10-19T06:55:53.355Z,95.10
2017-10-19T06:58:19.883Z,96.50
2017-10-19T07:00:46.177Z,98.20
2017-10-19T07:03:19.347Z,98.60
2017-10-19T07:05:45.655Z,98.20
2017-10-19T07:08:12.086Z,97.30
2017-10-19T07:10:38.455Z,97.40
2017-10-19T07:13:04.780Z,96.90
2017-10-19T07:15:31.057Z,96.60
2017-10-19T07:17:58.091Z,97.30
2017-10-19T07:20:24.514Z,97.30
2017-10-19T07:22:50.794Z,97.20
2017-10-19T07:25:17.119Z,95.60
2017-10-19T07:27:43.432Z,94.30
2017-10-19T07:30:10.497Z,93.40
2017-10-19T07:32:36.828Z,93.40
2017-10-19T07:35:03.139Z,91.80
2017-10-19T07:37:30.200Z,92.00
2017-10-19T07:39:56.529Z,92.00
2017-10-19T07:42:22.875Z,92.40
2017-10-19T07:44:49.150Z,93.00
2017-10-19T07:47:15.417Z,93.40
2017-10-19T07:49:41.716Z,93.90
2017-10-19T07:52:08.797Z,94.70
2017-10-19T07:54:35.100Z,94.70
2017-10-19T07:57:01.371Z,95.00
2017-10-19T07:59:27.695Z,95.20
2017-10-19T08:01:53.973Z,95.40
2017-10-19T08:04:21.020Z,96.20
2017-10-19T08:06:48.068Z,95.80
2017-10-19T08:09:15.112Z,96.00
2017-10-19T08:11:42.161Z,96.20
2017-10-19T08:14:08.432Z,96.20
2017-10-19T08:16:34.777Z,96.30
2017-10-19T08:19:01.182Z,96.50
2017-10-19T08:21:27.513Z,96.60
2017-10-19T08:23:53.842Z,97.00
2017-10-19T08:26:20.906Z,97.40
2017-10-19T08:28:47.174Z,97.40
2017-10-19T08:31:14.554Z,97.60
2017-10-19T08:33:41.587Z,97.70
2017-10-19T08:36:07.889Z,97.70
2017-10-19T08:38:34.192Z,97.70
2017-10-19T08:41:00.481Z,97.80
2017-10-19T08:43:26.823Z,98.00
2017-10-19T08:45:53.116Z,97.90
2017-10-19T08:48:27.139Z,97.90
2017-10-19T08:50:53.414Z,97.80
2017-10-19T08:53:19.744Z,97.70
2017-10-19T08:55:46.050Z,97.30
2017-10-19T08:58:12.317Z,97.00
2017-10-19T09:00:38.630Z,96.40
2017-10-19T09:03:04.960Z,95.80
2017-10-19T09:05:31.257Z,95.50
2017-10-19T09:07:57.555Z,95.30
2017-10-19T09:10:24.607Z,94.60
2017-10-19T09:12:50.916Z,94.60
2017-10-19T09:15:17.296Z,94.60
2017-10-19T09:17:43.575Z,94.60
2017-10-19T09:20:10.587Z,93.80
2017-10-19T09:22:36.983Z,93.80
2017-10-19T09:25:03.334Z,93.30
2017-10-19T09:27:51.744Z,93.10
2017-10-19T09:30:18.119Z,93.20
2017-10-19T09:32:44.443Z,93.20
2017-10-19T09:35:10.769Z,93.40
2017-10-19T09:37:37.047Z,92.60
2017-10-19T09:40:04.135Z,92.40
2017-10-19T09:45:23.696Z,92.20
2017-10-19T09:47:50.030Z,91.60
2017-10-19T09:50:16.374Z,91.30
2017-10-19T09:52:42.691Z,90.70
2017-10-19T09:55:09.010Z,90.30
2017-10-19T09:57:35.361Z,89.10
2017-10-19T10:00:01.711Z,88.10
2017-10-19T10:02:28.025Z,87.10
2017-10-19T10:04:54.363Z,85.70
2017-10-19T10:07:20.682Z,85.30
2017-10-19T10:09:46.988Z,85.40
2017-10-19T10:12:13.359Z,84.30
2017-10-19T10:14:39.616Z,83.20
2017-10-19T10:17:05.932Z,80.70
2017-10-19T10:19:32.268Z,79.60
2017-10-19T10:21:58.599Z,78.30
2017-10-19T10:24:24.921Z,77.40
2017-10-19T10:26:51.265Z,76.20
2017-10-19T10:29:18.311Z,73.90
2017-10-19T10:31:45.359Z,73.50
2017-10-19T10:34:12.415Z,72.40
2017-10-19T10:36:39.476Z,72.00
2017-10-19T10:39:05.811Z,71.90
2017-10-19T10:41:32.111Z,71.30
2017-10-19T10:43:59.228Z,71.50
2017-10-19T10:46:25.540Z,71.50
2017-10-19T10:48:51.895Z,71.60
2017-10-19T10:51:18.230Z,72.20
2017-10-19T10:53:44.532Z,72.80
2017-10-19T10:56:10.843Z,72.90
2017-10-19T10:58:37.182Z,72.40
2017-10-19T11:01:03.572Z,72.20
2017-10-19T11:03:29.879Z,71.70
2017-10-19T11:05:56.922Z,70.10
2017-10-19T11:08:23.185Z,69.30
2017-10-19T11:10:49.528Z,67.30
2017-10-19T11:13:15.818Z,66.90
2017-10-19T11:15:42.835Z,66.70
2017-10-19T11:18:09.135Z,66.60
2017-10-19T11:20:35.451Z,65.30
2017-10-19T11:23:01.759Z,63.80
2017-10-19T11:25:28.061Z,63.00
2017-10-19T11:27:54.726Z,62.60
2017-10-19T11:30:21.019Z,62.40
2017-10-19T11:32:47.309Z,62.00
2017-10-19T11:35:13.672Z,61.90
2017-10-19T11:37:39.998Z,60.30
2017-10-19T11:40:06.328Z,59.30
2017-10-19T11:42:32.636Z,59.50
2017-10-19T11:44:58.946Z,59.50
2017-10-19T11:47:25.228Z,59.40
2017-10-19T11:49:51.489Z,58.40
2017-10-19T11:52:17.798Z,58.40
2017-10-19T11:54:44.820Z,59.10
2017-10-19T11:57:11.128Z,59.10
2017-10-19T11:59:37.442Z,57.90
2017-10-19T12:02:03.795Z,57.30
2017-10-19T12:04:30.080Z,56.90
2017-10-19T12:06:56.381Z,56.50
2017-10-19T12:09:23.422Z,56.60
2017-10-19T12:11:50.504Z,55.10
2017-10-19T12:14:16.797Z,55.10
2017-10-19T12:16:43.842Z,54.10
2017-10-19T12:19:10.157Z,54.10
2017-10-19T12:21:36.453Z,54.10
2017-10-19T12:24:02.786Z,54.20
2017-10-19T12:26:29.107Z,53.90
2017-10-19T12:28:55.386Z,54.40
2017-10-19T12:31:22.473Z,53.90
2017-10-19T12:33:48.806Z,53.90
2017-10-19T12:36:15.086Z,54.60
2017-10-19T12:38:41.406Z,54.20
2017-10-19T12:41:07.678Z,53.90
2017-10-19T12:43:34.014Z,54.80
2017-10-19T12:46:00.307Z,54.00
2017-10-19T12:48:26.648Z,54.30
2017-10-19T12:50:59.802Z,54.80
2017-10-19T12:53:26.574Z,55.10
2017-10-19T12:55:52.874Z,55.10
2017-10-19T12:58:19.926Z,56.20
2017-10-19T13:00:46.227Z,56.30
2017-10-19T13:03:12.573Z,57.30
2017-10-19T13:05:38.908Z,58.10
2017-10-19T13:08:06.694Z,59.30
2017-10-19T13:10:33.746Z,59.30
2017-10-19T13:13:00.059Z,59.20
2017-10-19T13:15:27.114Z,59.50
2017-10-19T13:17:54.141Z,60.10
2017-10-19T13:20:21.180Z,61.10
2017-10-19T13:22:47.514Z,60.60
2017-10-19T13:25:13.814Z,61.10
2017-10-19T13:27:40.120Z,61.20
2017-10-19T13:30:06.436Z,61.40
2017-10-19T13:32:32.755Z,61.50
2017-10-19T13:34:59.053Z,62.20
2017-10-19T13:37:25.361Z,62.10
2017-10-19T13:39:51.676Z,62.30
2017-10-19T13:42:17.989Z,62.40
2017-10-19T13:44:45.038Z,63.00
2017-10-19T13:47:11.336Z,63.00
2017-10-19T13:49:37.640Z,63.20
2017-10-19T13:52:04.773Z,63.30
2017-10-19T13:54:31.135Z,63.30
2017-10-19T13:56:58.166Z,63.60
2017-10-19T13:59:24.446Z,63.60
2017-10-19T14:01:50.778Z,62.60
2017-10-19T14:04:17.959Z,62.30
2017-10-19T14:06:44.283Z,62.30
2017-10-19T14:09:10.586Z,61.90
2017-10-19T14:11:36.897Z,61.20
2017-10-19T14:14:03.227Z,60.40
2017-10-19T14:16:29.541Z,59.70
2017-10-19T14:18:56.126Z,59.20
2017-10-19T14:21:22.455Z,58.90
2017-10-19T14:23:48.758Z,58.80
2017-10-19T14:26:15.081Z,58.80
2017-10-19T14:28:41.409Z,58.70
2017-10-19T14:31:07.740Z,58.30
2017-10-19T14:33:34.029Z,57.80
2017-10-19T14:36:01.057Z,57.30
2017-10-19T14:38:27.404Z,57.20
2017-10-19T14:40:54.024Z,56.90
2017-10-19T14:43:20.308Z,57.40
2017-10-19T14:45:46.636Z,56.90
2017-10-19T14:48:12.941Z,57.10
2017-10-19T14:50:39.269Z,56.60
2017-10-19T14:53:05.611Z,57.00
2017-10-19T14:55:31.911Z,56.80
2017-10-19T14:57:58.964Z,56.20
2017-10-19T15:00:26.004Z,55.90
2017-10-19T15:02:52.414Z,55.80
2017-10-19T15:05:18.717Z,55.60
2017-10-19T15:07:45.023Z,55.70
2017-10-19T15:10:11.342Z,56.00
2017-10-19T15:12:37.650Z,56.50
2017-10-19T15:15:04.751Z,56.20
2017-10-19T15:17:31.055Z,56.20
2017-10-19T15:19:57.347Z,56.30
2017-10-19T15:22:24.394Z,57.10
2017-10-19T15:24:51.454Z,58.10
2017-10-19T15:27:17.729Z,57.90
2017-10-19T15:29:44.048Z,58.60
2017-10-19T15:32:10.378Z,59.10
2017-10-19T15:34:36.698Z,60.20
2017-10-19T15:37:03.706Z,62.00
2017-10-19T15:39:30.034Z,61.90
2017-10-19T15:41:57.091Z,64.20
2017-10-19T15:44:23.394Z,64.00
2017-10-19T15:46:50.533Z,66.40
2017-10-19T15:49:16.808Z,66.40
2017-10-19T15:51:43.117Z,67.90
2017-10-19T15:54:10.205Z,69.50
2017-10-19T15:56:36.504Z,69.50
2017-10-19T15:59:02.820Z,70.50
2017-10-19T16:01:29.154Z,71.30
2017-10-19T16:03:55.538Z,72.00
2017-10-19T16:06:21.802Z,72.60
2017-10-19T16:08:48.843Z,74.30
2017-10-19T16:11:15.911Z,75.40
2017-10-19T16:13:42.228Z,75.30
2017-10-19T16:16:08.568Z,76.40
2017-10-19T16:18:34.871Z,77.40
2017-10-19T16:21:01.933Z,79.00
2017-10-19T16:23:28.279Z,79.00
2017-10-19T16:25:54.581Z,80.10
2017-10-19T16:28:21.657Z,82.70
2017-10-19T16:30:48.019Z,82.00
2017-10-19T16:33:14.360Z,83.10
2017-10-19T16:35:40.669Z,84.00
2017-10-19T16:38:07.364Z,84.70
2017-10-19T16:40:33.682Z,85.90
2017-10-19T16:43:00.053Z,86.60
2017-10-19T16:45:26.357Z,87.40
2017-10-19T16:47:52.693Z,88.10
2017-10-19T16:50:19.021Z,88.50
2017-10-19T16:52:45.309Z,89.20
2017-10-19T16:55:11.647Z,90.10
2017-10-19T17:00:38.396Z,90.60
2017-10-19T17:03:05.587Z,91.50
2017-10-19T17:05:31.977Z,91.50
2017-10-19T17:07:59.063Z,92.20
2017-10-19T17:10:26.149Z,92.70
2017-10-19T17:12:52.486Z,92.70
2017-10-19T17:15:18.836Z,92.90
2017-10-19T17:17:45.911Z,93.20
2017-10-19T17:20:12.216Z,93.20
2017-10-19T17:22:39.265Z,93.40
2017-10-19T17:25:06.312Z,93.70
2017-10-19T17:27:32.648Z,93.70
2017-10-19T17:29:58.978Z,94.00
2017-10-19T17:32:25.299Z,94.00
2017-10-19T17:34:51.662Z,94.00
2017-10-19T17:37:17.994Z,94.00
2017-10-19T17:39:44.419Z,94.10
2017-10-19T17:42:10.752Z,94.40
2017-10-19T17:44:37.087Z,94.50
2017-10-19T17:47:03.439Z,94.50
2017-10-19T17:49:29.832Z,94.40
2017-10-19T17:51:56.192Z,94.40
2017-10-19T17:54:22.536Z,94.40
2017-10-19T17:56:49.699Z,94.50
2017-10-19T17:59:16.784Z,94.50
2017-10-19T18:01:43.117Z,94.50
2017-10-19T18:04:09.472Z,94.60
2017-10-19T18:06:35.968Z,94.60
2017-10-19T18:09:02.423Z,94.90
2017-10-19T18:11:28.862Z,95.20
2017-10-19T18:13:55.290Z,95.30
2017-10-19T18:16:21.652Z,95.30
2017-10-19T18:18:48.107Z,95.40
2017-10-19T18:21:14.504Z,95.50
2017-10-19T18:23:40.904Z,95.60
2017-10-19T18:26:07.312Z,95.80
2017-10-19T18:28:33.695Z,95.60
2017-10-19T18:31:00.104Z,95.60
2017-10-19T18:33:26.847Z,95.70
2017-10-19T18:35:53.247Z,95.80
2017-10-19T18:38:19.659Z,95.80
2017-10-19T18:40:46.126Z,95.80
2017-10-19T18:43:12.560Z,95.70
2017-10-19T18:45:39.013Z,95.70
2017-10-19T18:48:05.392Z,95.70
2017-10-19T18:50:31.795Z,95.70
2017-10-19T18:52:58.913Z,95.70
2017-10-19T18:55:25.342Z,95.70
2017-10-19T18:57:51.751Z,95.60
2017-10-19T19:00:18.351Z,95.80
2017-10-19T19:02:44.838Z,95.90
2017-10-19T19:05:11.264Z,95.80
2017-10-19T19:07:37.734Z,95.80
2017-10-19T19:10:04.985Z,95.90
2017-10-19T19:12:32.128Z,95.90
2017-10-19T19:14:59.221Z,96.00
2017-10-19T19:17:25.631Z,95.90
2017-10-19T19:19:52.049Z,95.90
2017-10-19T19:22:18.490Z,95.80
2017-10-19T19:24:44.926Z,95.90
2017-10-19T19:27:11.362Z,96.00
2017-10-19T19:29:37.741Z,96.10
2017-10-19T19:32:04.208Z,96.10
2017-10-19T19:34:30.737Z,96.10
2017-10-19T19:36:57.184Z,96.00
2017-10-19T19:39:23.547Z,96.00
2017-10-19T19:41:49.997Z,96.10
2017-10-19T19:44:16.399Z,96.20
2017-10-19T19:46:42.859Z,96.20
2017-10-19T19:49:09.297Z,96.40
2017-10-19T19:51:35.722Z,96.70
2017-10-19T19:54:02.121Z,96.80
2017-10-19T19:56:28.522Z,96.90
2017-10-19T19:58:54.946Z,97.00
2017-10-19T20:01:21.387Z,97.10
2017-10-19T20:03:47.859Z,97.10
2017-10-19T20:06:14.288Z,97.10
2017-10-19T20:08:41.048Z,97.10
2017-10-19T20:11:08.180Z,97.20
2017-10-19T20:13:34.605Z,97.20
2017-10-19T20:16:01.034Z,97.10
2017-10-19T20:18:27.401Z,97.00
2017-10-19T20:20:54.813Z,97.00
2017-10-19T20:23:21.172Z,97.00
2017-10-19T20:25:47.505Z,96.90
2017-10-19T20:28:13.893Z,97.20
2017-10-19T20:30:40.190Z,97.00
2017-10-19T20:33:06.909Z,96.90
2017-10-19T20:35:33.992Z,97.50
2017-10-19T20:38:00.339Z,97.30
2017-10-19T20:40:26.699Z,97.30
2017-10-19T20:42:53.042Z,97.30
2017-10-19T20:45:19.399Z,97.30
2017-10-19T20:47:45.730Z,97.30
2017-10-19T20:50:12.086Z,97.40
2017-10-19T20:52:38.443Z,97.60
2017-10-19T20:55:04.793Z,97.80
2017-10-19T20:57:31.869Z,98.00
2017-10-19T21:02:32.171Z,97.90
2017-10-19T21:04:58.468Z,97.90
2017-10-19T21:07:24.799Z,98.10
2017-10-19T21:09:51.093Z,97.80
2017-10-19T21:12:17.430Z,98.00
2017-10-19T21:14:43.737Z,97.90
2017-10-19T21:17:10.075Z,97.90
2017-10-19T21:19:36.393Z,97.90
2017-10-19T21:22:02.711Z,97.90
2017-10-19T21:24:29.781Z,97.70
2017-10-19T21:26:56.066Z,97.70
2017-10-19T21:29:22.400Z,97.70
2017-10-19T21:31:48.725Z,97.60
2017-10-19T21:34:15.035Z,97.60
2017-10-19T21:36:41.380Z,97.70
2017-10-19T21:39:08.420Z,97.70
2017-10-19T21:41:34.737Z,97.70
2017-10-19T21:44:01.060Z,97.60
2017-10-19T21:46:27.397Z,97.60
2017-10-19T21:48:53.698Z,97.60
2017-10-19T21:51:20.064Z,97.70
2017-10-19T21:53:46.411Z,97.70
2017-10-19T21:56:13.471Z,97.80
2017-10-19T21:58:40.526Z,98.00
2017-10-19T22:01:07.576Z,98.10
2017-10-19T22:03:33.969Z,98.00
2017-10-19T22:06:00.294Z,98.00
2017-10-19T22:08:26.613Z,98.00
2017-10-19T22:10:53.209Z,98.20
2017-10-19T22:13:19.506Z,98.20
2017-10-19T22:15:45.803Z,98.20
2017-10-19T22:18:12.123Z,98.40
2017-10-19T22:20:38.435Z,98.20
2017-10-19T22:23:04.761Z,98.30
2017-10-19T22:25:31.069Z,98.20
2017-10-19T22:27:58.121Z,98.10
2017-10-19T22:30:24.432Z,98.10
2017-10-19T22:32:51.487Z,98.50
2017-10-19T22:35:18.524Z,98.60
2017-10-19T22:37:45.565Z,98.50
2017-10-19T22:40:12.660Z,98.60
2017-10-19T22:42:38.964Z,98.60
2017-10-19T22:45:05.266Z,98.70
2017-10-19T22:47:32.332Z,98.60
2017-10-19T22:49:58.636Z,98.60
2017-10-19T22:52:25.998Z,99.20
2017-10-19T22:54:53.042Z,99.40
2017-10-19T22:57:20.067Z,99.50
2017-10-19T22:59:46.413Z,99.50
2017-10-19T23:02:16.038Z,99.70
2017-10-19T23:04:42.371Z,99.70
2017-10-19T23:07:08.671Z,99.70
2017-10-19T23:09:35.710Z,99.50
2017-10-19T23:12:02.010Z,99.50
2017-10-19T23:14:28.320Z,99.50
2017-10-19T23:16:54.662Z,99.40
2017-10-19T23:19:20.933Z,99.40
2017-10-19T23:21:47.994Z,99.50
2017-10-19T23:24:15.032Z,99.30
2017-10-19T23:26:42.093Z,99.50
2017-10-19T23:29:08.740Z,99.50
2017-10-19T23:31:35.035Z,99.50
2017-10-19T23:34:02.098Z,99.50
2017-10-19T23:36:28.437Z,99.50
2017-10-19T23:38:54.719Z,99.50
2017-10-19T23:41:21.032Z,99.50
2017-10-19T23:43:47.329Z,99.50
2017-10-19T23:46:13.642Z,99.40
2017-10-19T23:48:41.106Z,99.30
2017-10-19T23:51:07.436Z,99.30
2017-10-19T23:53:33.721Z,99.30
2017-10-19T23:56:00.043Z,99.40
2017-10-19T23:58:26.343Z,99.40
